Santiago, Minnesota
Current Conditions -  °F | °C
As of 1:54 PM on Thursday 27 Nov 2014 (Local Time) from KPNM Reporting Station
Clear Clear  
Wind Chill:   Ceiling: Unl
Heat Index:   Visibility: 10mi
Dew Point: -4°   Wind: 0mph
Humidity: 57%   Direction: NA
Pressure: 30.42"   Gusts: NA
Location:  45.54°N, 93.82°W
Report Text: KPNM 271954Z AUTO 00000KT 10SM CLR M13/M20 A3042 RMK AO2
Loading
Personal Weather Stations






























Interactive Weather Map New forecast layout! Learn more

10-Day Weather Forecast

Advertisements
Track Severe Weather on mobile